Rices Mills, Vermont
Current Conditions -  °F | °C
As of 7:53 AM on Monday 22 Dec 2014 (Local Time) from KLEB Reporting Station
Haze Haze  
Wind Chill: 28°   Ceiling: 3600
Heat Index: 28°   Visibility: 6mi
Dew Point: 24°   Wind: 0mph
Humidity: 85%   Direction: NA
Pressure: 30.37"   Gusts: NA
Location:  43.8204°N, 72.274°W
Report Text: KLEB 221253Z 00000KT 6SM BR OVC036 M02/M04 A3037 RMK AO2 SLP296 T10221044
Loading
Personal Weather Stations






























Interactive Weather Map New forecast layout! Learn more

10-Day Weather Forecast

Advertisements
Track Severe Weather on mobile